Shepard, North Dakota
Current Conditions -  °F | °C
As of 5:15 AM on Thursday 23 Oct 2014 (Local Time) from KBAC Reporting Station
Clear Clear  
Wind Chill: 39°   Ceiling: Unl
Heat Index: 45°   Visibility: 10mi
Dew Point: 41°   Wind: 12mph
Humidity: 87%   Direction: 250°WSW
Pressure: 29.89"   Gusts: NA
Location:  47.4507°N, 98.2031°W
Report Text: KBAC 231015Z AUTO 25010KT 10SM CLR 07/05 A2989 RMK AO2
Loading
Personal Weather Stations






























Interactive Weather Map
Tropical Storm Tracking
New forecast layout! Learn more

10-Day Weather Forecast

Advertisements
Track Severe Weather on mobile